sensor_id;sensor_type;location;lat;lon;timestamp;pressure;altitude;pressure_sealevel;temperature;humidity
23677;BME280;31493;49.058;12.190;2024-03-02T00:00:27;95151.66;;;4.73;100.00
23677;BME280;31493;49.058;12.190;2024-03-02T00:02:55;95148.66;;;4.52;100.00
23677;BME280;31493;49.058;12.190;2024-03-02T00:05:22;95148.22;;;4.45;100.00
23677;BME280;31493;49.058;12.190;2024-03-02T00:07:53;95142.31;;;4.57;100.00
23677;BME280;31493;49.058;12.190;2024-03-02T00:10:25;95135.22;;;4.48;100.00
23677;BME280;31493;49.058;12.190;2024-03-02T00:12:55;95143.84;;;4.47;100.00
23677;BME280;31493;49.058;12.190;2024-03-02T00:15:40;95140.94;;;4.66;100.00
23677;BME280;31493;49.058;12.190;2024-03-02T00:18:10;95142.38;;;4.70;100.00
23677;BME280;31493;49.058;12.190;2024-03-02T00:20:38;95144.34;;;4.52;100.00
23677;BME280;31493;49.058;12.190;2024-03-02T00:23:07;95141.94;;;4.63;100.00
23677;BME280;31493;49.058;12.190;2024-03-02T00:25:37;95146.22;;;4.77;100.00
23677;BME280;31493;49.058;12.190;2024-03-02T00:28:05;95143.69;;;4.63;100.00
23677;BME280;31493;49.058;12.190;2024-03-02T00:30:51;95141.56;;;4.70;100.00
23677;BME280;31493;49.058;12.190;2024-03-02T00:33:19;95143.97;;;4.58;100.00
23677;BME280;31493;49.058;12.190;2024-03-02T00:35:46;95139.81;;;4.43;100.00
23677;BME280;31493;49.058;12.190;2024-03-02T00:38:14;95148.38;;;4.56;100.00
23677;BME280;31493;49.058;12.190;2024-03-02T00:40:43;95142.53;;;4.54;100.00
23677;BME280;31493;49.058;12.190;2024-03-02T00:46:01;95144.56;;;4.49;100.00
23677;BME280;31493;49.058;12.190;2024-03-02T00:48:28;95138.66;;;4.61;100.00
23677;BME280;31493;49.058;12.190;2024-03-02T00:50:57;95136.91;;;4.62;100.00
23677;BME280;31493;49.058;12.190;2024-03-02T00:53:26;95138.38;;;4.66;100.00
23677;BME280;31493;49.058;12.190;2024-03-02T00:55:54;95142.91;;;4.75;100.00
23677;BME280;31493;49.058;12.190;2024-03-02T00:58:21;95143.31;;;4.69;100.00
23677;BME280;31493;49.058;12.190;2024-03-02T01:00:48;95145.47;;;4.75;100.00
23677;BME280;31493;49.058;12.190;2024-03-02T01:03:15;95139.72;;;4.72;100.00
23677;BME280;31493;49.058;12.190;2024-03-02T01:05:42;95134.56;;;4.59;100.00
23677;BME280;31493;49.058;12.190;2024-03-02T01:08:10;95132.66;;;4.48;100.00
23677;BME280;31493;49.058;12.190;2024-03-02T01:10:37;95134.88;;;4.67;100.00
23677;BME280;31493;49.058;12.190;2024-03-02T01:13:05;95136.34;;;4.71;100.00
23677;BME280;31493;49.058;12.190;2024-03-02T01:15:33;95134.88;;;4.67;100.00
23677;BME280;31493;49.058;12.190;2024-03-02T01:18:00;95132.03;;;4.72;100.00
23677;BME280;31493;49.058;12.190;2024-03-02T01:20:27;95131.13;;;4.58;100.00
23677;BME280;31493;49.058;12.190;2024-03-02T01:22:54;95130.94;;;4.61;100.00
23677;BME280;31493;49.058;12.190;2024-03-02T01:25:21;95137.28;;;4.56;100.00
23677;BME280;31493;49.058;12.190;2024-03-02T01:27:48;95124.41;;;4.70;100.00
23677;BME280;31493;49.058;12.190;2024-03-02T01:30:17;95123.44;;;4.58;100.00
23677;BME280;31493;49.058;12.190;2024-03-02T01:32:44;95134.09;;;4.52;100.00
23677;BME280;31493;49.058;12.190;2024-03-02T01:35:11;95125.81;;;4.61;100.00
23677;BME280;31493;49.058;12.190;2024-03-02T01:37:38;95133.03;;;4.69;100.00
23677;BME280;31493;49.058;12.190;2024-03-02T01:40:06;95133.66;;;4.73;100.00
23677;BME280;31493;49.058;12.190;2024-03-02T01:42:35;95127.41;;;4.77;100.00
23677;BME280;31493;49.058;12.190;2024-03-02T01:45:04;95119.94;;;4.86;100.00
23677;BME280;31493;49.058;12.190;2024-03-02T01:47:32;95131.03;;;4.87;100.00
23677;BME280;31493;49.058;12.190;2024-03-02T01:50:00;95128.56;;;4.85;100.00
23677;BME280;31493;49.058;12.190;2024-03-02T01:52:27;95129.97;;;4.77;100.00
23677;BME280;31493;49.058;12.190;2024-03-02T01:54:55;95125.19;;;4.85;100.00
23677;BME280;31493;49.058;12.190;2024-03-02T01:57:22;95130.59;;;4.80;100.00
23677;BME280;31493;49.058;12.190;2024-03-02T01:59:50;95119.19;;;4.72;100.00
23677;BME280;31493;49.058;12.190;2024-03-02T02:02:17;95123.81;;;4.79;100.00
23677;BME280;31493;49.058;12.190;2024-03-02T02:04:46;95126.25;;;4.95;100.00
23677;BME280;31493;49.058;12.190;2024-03-02T02:07:13;95127.00;;;4.97;100.00
23677;BME280;31493;49.058;12.190;2024-03-02T02:09:41;95115.16;;;4.95;100.00
23677;BME280;31493;49.058;12.190;2024-03-02T02:12:09;95126.00;;;4.85;100.00
23677;BME280;31493;49.058;12.190;2024-03-02T02:14:36;95112.22;;;4.86;100.00
23677;BME280;31493;49.058;12.190;2024-03-02T02:17:05;95124.38;;;4.84;100.00
23677;BME280;31493;49.058;12.190;2024-03-02T02:19:32;95114.75;;;5.01;100.00
23677;BME280;31493;49.058;12.190;2024-03-02T02:22:00;95121.47;;;4.89;100.00
23677;BME280;31493;49.058;12.190;2024-03-02T02:24:27;95117.25;;;5.02;100.00
23677;BME280;31493;49.058;12.190;2024-03-02T02:26:54;95118.75;;;4.92;100.00
23677;BME280;31493;49.058;12.190;2024-03-02T02:29:21;95113.97;;;4.86;100.00
23677;BME280;31493;49.058;12.190;2024-03-02T02:31:48;95115.97;;;4.95;100.00
23677;BME280;31493;49.058;12.190;2024-03-02T02:34:15;95121.78;;;4.84;100.00
23677;BME280;31493;49.058;12.190;2024-03-02T02:36:42;95113.41;;;4.95;100.00
23677;BME280;31493;49.058;12.190;2024-03-02T02:39:14;95123.00;;;4.79;100.00
23677;BME280;31493;49.058;12.190;2024-03-02T02:41:42;95106.63;;;4.94;100.00
23677;BME280;31493;49.058;12.190;2024-03-02T02:44:09;95115.16;;;4.95;100.00
23677;BME280;31493;49.058;12.190;2024-03-02T02:46:38;95100.78;;;4.92;100.00
23677;BME280;31493;49.058;12.190;2024-03-02T02:49:05;95107.97;;;5.00;100.00
23677;BME280;31493;49.058;12.190;2024-03-02T02:51:33;95102.00;;;4.99;100.00
23677;BME280;31493;49.058;12.190;2024-03-02T02:54:00;95095.06;;;4.87;100.00
23677;BME280;31493;49.058;12.190;2024-03-02T02:56:28;95107.16;;;4.72;100.00
23677;BME280;31493;49.058;12.190;2024-03-02T02:58:55;95097.94;;;4.82;100.00
23677;BME280;31493;49.058;12.190;2024-03-02T03:01:22;95100.97;;;4.62;100.00
23677;BME280;31493;49.058;12.190;2024-03-02T03:03:49;95111.47;;;4.72;100.00
23677;BME280;31493;49.058;12.190;2024-03-02T03:06:16;95118.44;;;4.70;100.00
23677;BME280;31493;49.058;12.190;2024-03-02T03:08:43;95109.94;;;4.82;100.00
23677;BME280;31493;49.058;12.190;2024-03-02T03:11:10;95116.25;;;4.90;100.00
23677;BME280;31493;49.058;12.190;2024-03-02T03:13:39;95117.75;;;4.80;100.00
23677;BME280;31493;49.058;12.190;2024-03-02T03:16:06;95109.56;;;4.88;100.00
23677;BME280;31493;49.058;12.190;2024-03-02T03:18:34;95109.47;;;4.89;100.00
23677;BME280;31493;49.058;12.190;2024-03-02T03:21:01;95123.81;;;4.79;100.00
23677;BME280;31493;49.058;12.190;2024-03-02T03:23:29;95105.13;;;4.77;100.00
23677;BME280;31493;49.058;12.190;2024-03-02T03:25:56;95117.44;;;4.72;100.00
23677;BME280;31493;49.058;12.190;2024-03-02T03:28:23;95107.66;;;4.91;100.00
23677;BME280;31493;49.058;12.190;2024-03-02T03:30:51;95110.69;;;4.84;100.00
23677;BME280;31493;49.058;12.190;2024-03-02T03:33:18;95111.56;;;4.97;100.00
23677;BME280;31493;49.058;12.190;2024-03-02T03:35:45;95118.66;;;4.93;100.00
23677;BME280;31493;49.058;12.190;2024-03-02T03:38:13;95105.94;;;5.05;100.00
23677;BME280;31493;49.058;12.190;2024-03-02T03:40:40;95100.91;;;5.03;100.00
23677;BME280;31493;49.058;12.190;2024-03-02T03:43:07;95101.63;;;4.78;100.00
23677;BME280;31493;49.058;12.190;2024-03-02T03:45:34;95117.59;;;4.83;100.00
23677;BME280;31493;49.058;12.190;2024-03-02T03:48:03;95113.31;;;4.97;100.00
23677;BME280;31493;49.058;12.190;2024-03-02T03:50:30;95112.41;;;4.98;100.00
23677;BME280;31493;49.058;12.190;2024-03-02T03:52:57;95115.31;;;4.79;100.00
23677;BME280;31493;49.058;12.190;2024-03-02T03:55:24;95115.19;;;4.80;100.00
23677;BME280;31493;49.058;12.190;2024-03-02T03:57:52;95110.69;;;4.84;100.00
23677;BME280;31493;49.058;12.190;2024-03-02T04:00:19;95113.88;;;4.87;100.00
23677;BME280;31493;49.058;12.190;2024-03-02T04:02:46;95109.31;;;4.92;100.00
23677;BME280;31493;49.058;12.190;2024-03-02T04:05:14;95112.94;;;4.88;100.00
23677;BME280;31493;49.058;12.190;2024-03-02T04:07:41;95113.66;;;4.78;100.00
23677;BME280;31493;49.058;12.190;2024-03-02T04:10:09;95114.91;;;4.85;100.00
23677;BME280;31493;49.058;12.190;2024-03-02T04:12:36;95122.78;;;4.82;100.00
23677;BME280;31493;49.058;12.190;2024-03-02T04:15:04;95124.66;;;4.80;100.00
23677;BME280;31493;49.058;12.190;2024-03-02T04:17:33;95129.50;;;4.84;100.00
23677;BME280;31493;49.058;12.190;2024-03-02T04:20:01;95123.59;;;4.97;100.00
23677;BME280;31493;49.058;12.190;2024-03-02T04:22:32;95119.31;;;5.10;100.00
23677;BME280;31493;49.058;12.190;2024-03-02T04:24:59;95114.69;;;4.88;100.00
23677;BME280;31493;49.058;12.190;2024-03-02T04:27:26;95127.09;;;4.96;100.00
23677;BME280;31493;49.058;12.190;2024-03-02T04:29:53;95126.38;;;5.06;100.00
23677;BME280;31493;49.058;12.190;2024-03-02T04:32:20;95128.66;;;5.11;100.00
23677;BME280;31493;49.058;12.190;2024-03-02T04:34:47;95128.41;;;5.01;100.00
23677;BME280;31493;49.058;12.190;2024-03-02T04:37:14;95129.16;;;5.03;100.00
23677;BME280;31493;49.058;12.190;2024-03-02T04:39:43;95121.34;;;5.05;100.00
23677;BME280;31493;49.058;12.190;2024-03-02T04:42:10;95125.97;;;5.12;100.00
23677;BME280;31493;49.058;12.190;2024-03-02T04:44:37;95137.91;;;5.13;100.00
23677;BME280;31493;49.058;12.190;2024-03-02T04:47:05;95133.66;;;5.00;100.00
23677;BME280;31493;49.058;12.190;2024-03-02T04:49:32;95126.47;;;4.92;100.00
23677;BME280;31493;49.058;12.190;2024-03-02T04:51:59;95132.66;;;5.02;100.00
23677;BME280;31493;49.058;12.190;2024-03-02T04:54:26;95140.78;;;5.09;100.00
23677;BME280;31493;49.058;12.190;2024-03-02T04:56:54;95143.63;;;4.91;100.00
23677;BME280;31493;49.058;12.190;2024-03-02T04:59:21;95141.28;;;5.01;100.00
23677;BME280;31493;49.058;12.190;2024-03-02T05:01:48;95138.22;;;4.82;100.00
23677;BME280;31493;49.058;12.190;2024-03-02T05:04:15;95146.50;;;4.73;100.00
23677;BME280;31493;49.058;12.190;2024-03-02T05:06:42;95141.59;;;4.82;100.00
23677;BME280;31493;49.058;12.190;2024-03-02T05:09:09;95150.50;;;4.91;100.00
23677;BME280;31493;49.058;12.190;2024-03-02T05:11:36;95156.19;;;4.96;100.00
23677;BME280;31493;49.058;12.190;2024-03-02T05:14:37;95154.78;;;5.17;100.00
23677;BME280;31493;49.058;12.190;2024-03-02T05:17:04;95150.25;;;5.08;100.00
23677;BME280;31493;49.058;12.190;2024-03-02T05:19:31;95156.63;;;4.88;100.00
23677;BME280;31493;49.058;12.190;2024-03-02T05:21:58;95168.38;;;4.92;100.00
23677;BME280;31493;49.058;12.190;2024-03-02T05:24:25;95159.78;;;5.06;100.00
23677;BME280;31493;49.058;12.190;2024-03-02T05:26:54;95147.94;;;4.77;100.00
23677;BME280;31493;49.058;12.190;2024-03-02T05:29:21;95159.53;;;4.70;100.00
23677;BME280;31493;49.058;12.190;2024-03-02T05:31:49;95161.59;;;4.91;100.00
23677;BME280;31493;49.058;12.190;2024-03-02T05:34:16;95161.25;;;4.83;100.00
23677;BME280;31493;49.058;12.190;2024-03-02T05:36:44;95166.03;;;4.75;100.00
23677;BME280;31493;49.058;12.190;2024-03-02T05:39:11;95164.25;;;4.90;100.00
23677;BME280;31493;49.058;12.190;2024-03-02T05:41:38;95176.28;;;4.89;100.00
23677;BME280;31493;49.058;12.190;2024-03-02T05:44:05;95173.25;;;4.97;100.00
23677;BME280;31493;49.058;12.190;2024-03-02T05:46:32;95179.63;;;5.04;100.00
23677;BME280;31493;49.058;12.190;2024-03-02T05:49:00;95171.81;;;5.06;100.00
23677;BME280;31493;49.058;12.190;2024-03-02T05:51:28;95177.78;;;5.06;100.00
23677;BME280;31493;49.058;12.190;2024-03-02T05:53:55;95182.72;;;5.09;100.00
23677;BME280;31493;49.058;12.190;2024-03-02T05:56:22;95181.09;;;5.08;100.00
23677;BME280;31493;49.058;12.190;2024-03-02T05:58:49;95179.34;;;5.09;100.00
23677;BME280;31493;49.058;12.190;2024-03-02T06:01:34;95177.59;;;5.09;100.00
23677;BME280;31493;49.058;12.190;2024-03-02T06:04:03;95180.34;;;5.06;100.00
23677;BME280;31493;49.058;12.190;2024-03-02T06:06:30;95183.34;;;5.13;100.00
23677;BME280;31493;49.058;12.190;2024-03-02T06:08:58;95190.22;;;5.12;100.00
23677;BME280;31493;49.058;12.190;2024-03-02T06:11:25;95196.19;;;5.13;100.00
23677;BME280;31493;49.058;12.190;2024-03-02T06:13:52;95190.88;;;5.16;100.00
23677;BME280;31493;49.058;12.190;2024-03-02T06:16:19;95189.75;;;5.20;100.00
23677;BME280;31493;49.058;12.190;2024-03-02T06:18:46;95186.72;;;5.13;100.00
23677;BME280;31493;49.058;12.190;2024-03-02T06:21:14;95193.88;;;5.23;100.00
23677;BME280;31493;49.058;12.190;2024-03-02T06:23:41;95199.44;;;5.29;100.00
23677;BME280;31493;49.058;12.190;2024-03-02T06:26:08;95197.47;;;5.20;100.00
23677;BME280;31493;49.058;12.190;2024-03-02T06:28:35;95192.13;;;5.23;100.00
23677;BME280;31493;49.058;12.190;2024-03-02T06:31:03;95193.56;;;5.27;100.00
23677;BME280;31493;49.058;12.190;2024-03-02T06:33:30;95190.69;;;5.32;100.00
23677;BME280;31493;49.058;12.190;2024-03-02T06:35:57;95200.25;;;5.30;100.00
23677;BME280;31493;49.058;12.190;2024-03-02T06:38:25;95179.09;;;5.26;100.00
23677;BME280;31493;49.058;12.190;2024-03-02T06:40:52;95188.81;;;5.21;100.00
23677;BME280;31493;49.058;12.190;2024-03-02T06:43:20;95186.47;;;5.31;100.00
23677;BME280;31493;49.058;12.190;2024-03-02T06:45:49;95183.81;;;5.32;100.00
23677;BME280;31493;49.058;12.190;2024-03-02T06:48:16;95201.72;;;5.34;100.00
23677;BME280;31493;49.058;12.190;2024-03-02T06:50:46;95189.47;;;5.37;100.00
23677;BME280;31493;49.058;12.190;2024-03-02T06:53:13;95194.38;;;5.15;100.00
23677;BME280;31493;49.058;12.190;2024-03-02T06:55:44;95187.94;;;5.35;100.00
23677;BME280;31493;49.058;12.190;2024-03-02T06:58:12;95196.69;;;5.32;100.00
23677;BME280;31493;49.058;12.190;2024-03-02T07:00:39;95200.84;;;5.21;100.00
23677;BME280;31493;49.058;12.190;2024-03-02T07:03:06;95195.22;;;5.28;100.00
23677;BME280;31493;49.058;12.190;2024-03-02T07:05:33;95201.91;;;5.31;100.00
23677;BME280;31493;49.058;12.190;2024-03-02T07:08:00;95207.56;;;5.36;100.00
23677;BME280;31493;49.058;12.190;2024-03-02T07:10:29;95193.25;;;5.32;100.00
23677;BME280;31493;49.058;12.190;2024-03-02T07:12:57;95198.75;;;5.40;100.00
23677;BME280;31493;49.058;12.190;2024-03-02T07:15:24;95191.56;;;5.45;100.00
23677;BME280;31493;49.058;12.190;2024-03-02T07:18:15;95206.22;;;5.30;100.00
23677;BME280;31493;49.058;12.190;2024-03-02T07:20:43;95202.13;;;5.40;100.00
23677;BME280;31493;49.058;12.190;2024-03-02T07:23:10;95216.75;;;5.40;100.00
23677;BME280;31493;49.058;12.190;2024-03-02T07:25:37;95204.22;;;5.08;100.00
23677;BME280;31493;49.058;12.190;2024-03-02T07:28:06;95210.31;;;5.20;100.00
23677;BME280;31493;49.058;12.190;2024-03-02T07:30:33;95213.00;;;5.31;100.00
23677;BME280;31493;49.058;12.190;2024-03-02T07:33:00;95223.00;;;5.36;100.00
23677;BME280;31493;49.058;12.190;2024-03-02T07:35:27;95221.50;;;5.19;100.00
23677;BME280;31493;49.058;12.190;2024-03-02T07:37:57;95231.34;;;5.12;100.00
23677;BME280;31493;49.058;12.190;2024-03-02T07:40:24;95227.56;;;5.18;100.00
23677;BME280;31493;49.058;12.190;2024-03-02T07:42:52;95229.91;;;5.08;100.00
23677;BME280;31493;49.058;12.190;2024-03-02T07:45:21;95237.31;;;5.40;100.00
23677;BME280;31493;49.058;12.190;2024-03-02T07:47:48;95239.97;;;5.38;100.00
23677;BME280;31493;49.058;12.190;2024-03-02T07:50:16;95241.41;;;5.42;100.00
23677;BME280;31493;49.058;12.190;2024-03-02T07:52:43;95239.91;;;5.53;100.00
23677;BME280;31493;49.058;12.190;2024-03-02T07:55:10;95236.91;;;5.46;100.00
23677;BME280;31493;49.058;12.190;2024-03-02T07:57:37;95240.47;;;5.43;100.00
23677;BME280;31493;49.058;12.190;2024-03-02T08:00:06;95247.19;;;5.46;100.00
23677;BME280;31493;49.058;12.190;2024-03-02T08:02:35;95232.75;;;5.31;100.00
23677;BME280;31493;49.058;12.190;2024-03-02T08:05:02;95245.56;;;5.18;100.00
23677;BME280;31493;49.058;12.190;2024-03-02T08:07:29;95251.91;;;5.39;100.00
23677;BME280;31493;49.058;12.190;2024-03-02T08:09:56;95252.34;;;5.46;100.00
23677;BME280;31493;49.058;12.190;2024-03-02T08:12:23;95255.47;;;5.37;100.00
23677;BME280;31493;49.058;12.190;2024-03-02T08:14:50;95255.50;;;5.50;100.00
23677;BME280;31493;49.058;12.190;2024-03-02T08:17:17;95260.25;;;5.56;100.00
23677;BME280;31493;49.058;12.190;2024-03-02T08:19:45;95255.78;;;5.72;100.00
23677;BME280;31493;49.058;12.190;2024-03-02T08:22:14;95257.53;;;5.71;100.00
23677;BME280;31493;49.058;12.190;2024-03-02T08:24:41;95258.13;;;5.75;100.00
23677;BME280;31493;49.058;12.190;2024-03-02T08:27:08;95250.16;;;5.40;100.00
23677;BME280;31493;49.058;12.190;2024-03-02T08:29:36;95243.84;;;5.71;100.00
23677;BME280;31493;49.058;12.190;2024-03-02T08:32:04;95254.88;;;5.86;100.00
23677;BME280;31493;49.058;12.190;2024-03-02T08:34:31;95263.13;;;6.04;100.00
23677;BME280;31493;49.058;12.190;2024-03-02T08:37:01;95256.09;;;5.93;100.00
23677;BME280;31493;49.058;12.190;2024-03-02T08:39:28;95258.34;;;5.72;100.00
23677;BME280;31493;49.058;12.190;2024-03-02T08:41:55;95262.41;;;5.89;100.00
23677;BME280;31493;49.058;12.190;2024-03-02T08:44:22;95257.03;;;6.05;100.00
23677;BME280;31493;49.058;12.190;2024-03-02T08:46:50;95263.31;;;5.88;100.00
23677;BME280;31493;49.058;12.190;2024-03-02T08:49:17;95265.09;;;6.00;100.00
23677;BME280;31493;49.058;12.190;2024-03-02T08:51:44;95259.94;;;6.13;100.00
23677;BME280;31493;49.058;12.190;2024-03-02T08:54:21;95271.13;;;6.12;100.00
23677;BME280;31493;49.058;12.190;2024-03-02T08:56:48;95268.97;;;5.93;100.00
23677;BME280;31493;49.058;12.190;2024-03-02T08:59:15;95280.31;;;6.16;100.00
23677;BME280;31493;49.058;12.190;2024-03-02T09:01:43;95278.16;;;6.10;100.00
23677;BME280;31493;49.058;12.190;2024-03-02T09:04:11;95270.72;;;5.92;100.00
23677;BME280;31493;49.058;12.190;2024-03-02T09:06:38;95266.94;;;6.11;100.00
23677;BME280;31493;49.058;12.190;2024-03-02T09:09:05;95267.16;;;6.08;100.00
23677;BME280;31493;49.058;12.190;2024-03-02T09:11:33;95263.13;;;6.16;100.00
23677;BME280;31493;49.058;12.190;2024-03-02T09:14:02;95276.59;;;5.94;100.00
23677;BME280;31493;49.058;12.190;2024-03-02T09:16:29;95277.03;;;6.01;100.00
23677;BME280;31493;49.058;12.190;2024-03-02T09:18:57;95271.47;;;6.20;100.00
23677;BME280;31493;49.058;12.190;2024-03-02T09:21:24;95277.22;;;6.23;100.00
23677;BME280;31493;49.058;12.190;2024-03-02T09:23:51;95276.31;;;6.37;100.00
23677;BME280;31493;49.058;12.190;2024-03-02T09:26:18;95277.34;;;6.22;100.00
23677;BME280;31493;49.058;12.190;2024-03-02T09:28:47;95269.31;;;6.01;100.00
23677;BME280;31493;49.058;12.190;2024-03-02T09:31:15;95273.94;;;6.21;100.00
23677;BME280;31493;49.058;12.190;2024-03-02T09:33:42;95271.78;;;6.28;100.00
23677;BME280;31493;49.058;12.190;2024-03-02T09:36:17;95271.88;;;6.14;100.00
23677;BME280;31493;49.058;12.190;2024-03-02T09:38:44;95272.81;;;6.25;100.00
23677;BME280;31493;49.058;12.190;2024-03-02T09:41:12;95267.25;;;6.32;100.00
23677;BME280;31493;49.058;12.190;2024-03-02T09:43:39;95262.00;;;6.33;100.00
23677;BME280;31493;49.058;12.190;2024-03-02T09:46:09;95264.88;;;6.16;100.00
23677;BME280;31493;49.058;12.190;2024-03-02T09:48:36;95268.16;;;6.18;100.00
23677;BME280;31493;49.058;12.190;2024-03-02T09:51:04;95264.97;;;6.27;100.00
23677;BME280;31493;49.058;12.190;2024-03-02T09:53:32;95262.59;;;6.49;100.00
23677;BME280;31493;49.058;12.190;2024-03-02T09:56:00;95269.50;;;6.49;100.00
23677;BME280;31493;49.058;12.190;2024-03-02T09:58:27;95267.00;;;6.60;100.00
23677;BME280;31493;49.058;12.190;2024-03-02T10:00:54;95252.88;;;6.66;100.00
23677;BME280;31493;49.058;12.190;2024-03-02T10:03:23;95256.63;;;6.62;100.00
23677;BME280;31493;49.058;12.190;2024-03-02T10:05:51;95261.56;;;6.52;100.00
23677;BME280;31493;49.058;12.190;2024-03-02T10:08:18;95260.81;;;6.75;100.00
23677;BME280;31493;49.058;12.190;2024-03-02T10:10:45;95258.03;;;6.66;100.00
23677;BME280;31493;49.058;12.190;2024-03-02T10:13:13;95267.41;;;6.54;100.00
23677;BME280;31493;49.058;12.190;2024-03-02T10:15:41;95261.88;;;6.97;100.00
23677;BME280;31493;49.058;12.190;2024-03-02T10:18:08;95253.50;;;7.06;100.00
23677;BME280;31493;49.058;12.190;2024-03-02T10:20:38;95256.84;;;7.19;100.00
23677;BME280;31493;49.058;12.190;2024-03-02T10:23:13;95258.75;;;7.28;100.00
23677;BME280;31493;49.058;12.190;2024-03-02T10:25:40;95246.69;;;7.53;100.00
23677;BME280;31493;49.058;12.190;2024-03-02T10:28:07;95254.66;;;7.26;100.00
23677;BME280;31493;49.058;12.190;2024-03-02T10:30:35;95256.19;;;7.52;100.00
23677;BME280;31493;49.058;12.190;2024-03-02T10:33:02;95248.44;;;7.28;100.00
23677;BME280;31493;49.058;12.190;2024-03-02T10:35:30;95255.50;;;7.50;100.00
23677;BME280;31493;49.058;12.190;2024-03-02T10:37:59;95246.09;;;7.25;100.00
23677;BME280;31493;49.058;12.190;2024-03-02T10:40:26;95244.13;;;7.53;100.00
23677;BME280;31493;49.058;12.190;2024-03-02T10:42:54;95250.00;;;7.31;100.00
23677;BME280;31493;49.058;12.190;2024-03-02T10:45:22;95242.84;;;7.34;100.00
23677;BME280;31493;49.058;12.190;2024-03-02T10:47:50;95236.03;;;7.33;100.00
23677;BME280;31493;49.058;12.190;2024-03-02T10:50:17;95239.38;;;7.36;100.00
23677;BME280;31493;49.058;12.190;2024-03-02T10:52:45;95232.94;;;7.17;100.00
23677;BME280;31493;49.058;12.190;2024-03-02T10:55:13;95232.13;;;7.41;100.00
23677;BME280;31493;49.058;12.190;2024-03-02T10:57:42;95232.81;;;7.19;100.00
23677;BME280;31493;49.058;12.190;2024-03-02T11:02:38;95225.44;;;7.38;100.00
23677;BME280;31493;49.058;12.190;2024-03-02T11:05:10;95222.84;;;7.14;100.00
23677;BME280;31493;49.058;12.190;2024-03-02T11:07:38;95213.72;;;7.21;100.00
23677;BME280;31493;49.058;12.190;2024-03-02T11:10:08;95221.59;;;7.44;100.00
23677;BME280;31493;49.058;12.190;2024-03-02T11:12:38;95214.84;;;7.30;100.00
23677;BME280;31493;49.058;12.190;2024-03-02T11:15:10;95222.88;;;7.25;100.00
23677;BME280;31493;49.058;12.190;2024-03-02T11:17:40;95213.41;;;7.50;100.00
23677;BME280;31493;49.058;12.190;2024-03-02T11:20:08;95214.09;;;7.28;100.00
23677;BME280;31493;49.058;12.190;2024-03-02T11:22:36;95212.34;;;7.52;100.00
23677;BME280;31493;49.058;12.190;2024-03-02T11:25:04;95197.81;;;7.51;100.00
23677;BME280;31493;49.058;12.190;2024-03-02T11:28:00;95201.81;;;7.31;100.00
23677;BME280;31493;49.058;12.190;2024-03-02T11:30:49;95193.38;;;7.53;100.00
23677;BME280;31493;49.058;12.190;2024-03-02T11:33:26;95185.47;;;7.79;100.00
23677;BME280;31493;49.058;12.190;2024-03-02T11:35:56;95178.72;;;7.65;100.00
23677;BME280;31493;49.058;12.190;2024-03-02T11:38:30;95170.69;;;7.92;100.00
23677;BME280;31493;49.058;12.190;2024-03-02T11:41:00;95182.28;;;7.86;100.00
23677;BME280;31493;49.058;12.190;2024-03-02T11:43:28;95169.53;;;7.85;100.00
23677;BME280;31493;49.058;12.190;2024-03-02T11:45:58;95164.56;;;7.82;100.00
23677;BME280;31493;49.058;12.190;2024-03-02T11:48:29;95168.69;;;7.96;100.00
23677;BME280;31493;49.058;12.190;2024-03-02T11:50:58;95165.97;;;7.75;100.00
23677;BME280;31493;49.058;12.190;2024-03-02T11:53:27;95153.22;;;7.84;100.00
23677;BME280;31493;49.058;12.190;2024-03-02T11:55:55;95156.63;;;8.30;100.00
23677;BME280;31493;49.058;12.190;2024-03-02T11:58:22;95142.31;;;7.92;100.00
23677;BME280;31493;49.058;12.190;2024-03-02T12:00:50;95156.84;;;8.27;100.00
23677;BME280;31493;49.058;12.190;2024-03-02T12:03:17;95143.22;;;8.13;100.00
23677;BME280;31493;49.058;12.190;2024-03-02T12:05:48;95145.94;;;8.46;100.00
23677;BME280;31493;49.058;12.190;2024-03-02T12:08:16;95146.63;;;8.25;100.00
23677;BME280;31493;49.058;12.190;2024-03-02T12:10:55;95136.06;;;8.06;100.00
23677;BME280;31493;49.058;12.190;2024-03-02T12:13:24;95133.50;;;8.17;100.00
23677;BME280;31493;49.058;12.190;2024-03-02T12:15:53;95142.19;;;7.94;100.00
23677;BME280;31493;49.058;12.190;2024-03-02T12:18:21;95126.56;;;8.06;100.00
23677;BME280;31493;49.058;12.190;2024-03-02T12:20:50;95134.22;;;8.74;100.00
23677;BME280;31493;49.058;12.190;2024-03-02T12:23:18;95125.63;;;8.84;100.00
23677;BME280;31493;49.058;12.190;2024-03-02T12:25:46;95131.41;;;8.77;100.00
23677;BME280;31493;49.058;12.190;2024-03-02T12:28:14;95119.63;;;8.52;100.00
23677;BME280;31493;49.058;12.190;2024-03-02T12:30:41;95117.91;;;9.05;100.00
23677;BME280;31493;49.058;12.190;2024-03-02T12:33:08;95113.53;;;9.06;100.00
23677;BME280;31493;49.058;12.190;2024-03-02T12:35:37;95112.53;;;8.97;100.00
23677;BME280;31493;49.058;12.190;2024-03-02T12:38:06;95097.84;;;9.18;100.00
23677;BME280;31493;49.058;12.190;2024-03-02T12:40:33;95102.59;;;9.13;100.00
23677;BME280;31493;49.058;12.190;2024-03-02T12:43:00;95096.66;;;9.85;100.00
23677;BME280;31493;49.058;12.190;2024-03-02T12:45:27;95085.75;;;10.22;100.00
23677;BME280;31493;49.058;12.190;2024-03-02T12:47:55;95081.38;;;10.13;100.00
23677;BME280;31493;49.058;12.190;2024-03-02T12:50:22;95088.47;;;10.20;100.00
23677;BME280;31493;49.058;12.190;2024-03-02T12:52:52;95081.03;;;9.96;100.00
23677;BME280;31493;49.058;12.190;2024-03-02T12:55:21;95069.09;;;10.05;100.00
23677;BME280;31493;49.058;12.190;2024-03-02T12:57:49;95056.03;;;10.86;100.00
23677;BME280;31493;49.058;12.190;2024-03-02T13:00:19;95066.97;;;10.39;100.00